Airfield :
LOGIN :

Register | Disclaimer

   EN    FR    IT 

 










Legend :    VFR   Marginal VFR   IFR   Intensive IFR   Very Intensive IFR
Visi :
Ceiling :
>= 8 km
>= 3000ft
5 to 8 km
1000 to 3000 ft
1500m to 5 km
500 to 1000 ft
800 to 1500m
200 to 500 ft
< 800m
< 200 ft
Symbols :   Thunderstorms  Fog  Heavy snow  Heavy precipitations  Wind > 20 kt
SIGMETs :     Misc.  Thunderstorms  Icing  Turbulence  Mountain Waves  Volcanic Ashes







- Airport Elevation : 425 ft
- IATA code : DTM


EDLW - Dortmund

CURRENT METAR :
  • 250020Z AUTO 20011KT 9999 // OVC054/// 14/08 Q1008

EXPIRED METARs :
  • 242350Z AUTO 20010KT 9999 // OVC052/// 14/09 Q1009
  • 242320Z AUTO 21008KT 9999 // SCT042/// OVC053/// 14/09 Q1009
  • 242250Z AUTO 21008KT 9999 // OVC045/// 13/09 Q1010
  • 242220Z AUTO 20007KT 9999 // BKN046/// OVC097/// 13/09 Q1010
  • 242150Z AUTO 20006KT 9999 // FEW049/// SCT063/// OVC100/// 12/08 Q1011

TAF TAF EDLW
Valid from the 24 at 18:00 until the 25 at 18:00 UTC


241700Z 2418/2518 24008KT 9999 BKN025
TEMPO 2420/2502 4000 -RA BKN013
BECMG 2504/2506 25015G25KT
TEMPO 2505/2511 SHRA SCT015TCU
BECMG 2513/2516 25010KT
No reported NOTAMs for that airfield.



MET'MAP, your aeronautical weather chart ! - Copyright ORBIFLY December 2007 - Disclaimer

ORBIFLY MET'MAP TEAM :

Programming & Development : Alexandra Zaïnal
Concept & Development : Baudouin d'Aumeries
Co-Development & Prog : Marc-Olivier Méhu
Technical & hardware support : Manuel Goepfert

Contact : metmap@orbifly.com




SOURCES & CREDITS :

   NOAA